This is the latest recevied weather packets stored in our database for station/object WD9EKA. If no packets are shown the sender has not sent any weather packets the latest 1 day(s).
| Time | Temp. | Humidity | Pressure | Rain* | Wind** | Luminosity | Snow |
|---|---|---|---|---|---|---|---|
| 1836274609 | 19.44° C | 92% | 1011.9 hPa | 0 mm | 0 m/s | - | - |
| 1836274498 | 18.89° C | 91% | 1011.9 hPa | 0 mm | 0 m/s | - | - |
| 1836274288 | 19.44° C | 92% | 1012 hPa | 0 mm | 0 m/s | - | - |
| 1836274179 | 19.44° C | 91% | 1011.8 hPa | 0 mm | 0 m/s | - | - |
| 1836273968 | 19.44° C | 92% | 1012.1 hPa | 0 mm | 0 m/s | - | - |
| 1778045374 | 6.67° C | 99% | 1006.5 hPa | 0 mm | 0 m/s | - | - |
| 1778045014 | 6.67° C | 99% | 1006.4 hPa | 0.25 mm | 0 m/s | - | - |
| 1778044654 | 6.67° C | 99% | 1006.5 hPa | 0.25 mm | 0 m/s | - | - |
| 1778044294 | 6.67° C | 99% | 1006.3 hPa | 0.25 mm | 0 m/s | - | - |
| 1778043933 | 6.67° C | 99% | 1006 hPa | 0.25 mm | 0 m/s | - | - |
| 1778043573 | 6.67° C | 99% | 1006.1 hPa | 0.51 mm | 0 m/s | - | - |
| 1778043213 | 6.67° C | 99% | 1006.2 hPa | 0.51 mm | 0 m/s | - | - |
| 1778042854 | 6.67° C | 99% | 1006.2 hPa | 0.76 mm | 0 m/s | - | - |
| 1778042494 | 6.67° C | 99% | 1006.3 hPa | 1.02 mm | 0 m/s | - | - |
| 1778042133 | 6.67° C | 99% | 1006.4 hPa | 1.02 mm | 0 m/s | - | - |
| 1778041774 | 6.67° C | 99% | 1006.5 hPa | 1.02 mm | 0 m/s | - | - |
| 1778041414 | 6.67° C | 99% | 1006.2 hPa | 1.02 mm | 0 m/s | - | - |
| 1778041054 | 6.67° C | 99% | 1006.4 hPa | 1.27 mm | 0 m/s | - | - |
| 1778040694 | 6.11° C | 99% | 1006.4 hPa | 1.27 mm | 0 m/s | - | - |
| 1778039974 | 6.67° C | 99% | 1006.4 hPa | 1.02 mm | 0 m/s | - | - |
| 1778039614 | 6.67° C | 99% | 1006.7 hPa | 0.76 mm | 0 m/s | - | - |
| 1778039253 | 6.11° C | 99% | 1006.5 hPa | 0.76 mm | 0 m/s | - | - |
| 1778038894 | 6.11° C | 99% | 1007 hPa | 0.51 mm | 0 m/s | - | - |
| 1778038534 | 6.11° C | 99% | 1006.8 hPa | 0.51 mm | 0 m/s | - | - |
| 1778038173 | 6.11° C | 99% | 1006.4 hPa | 0.76 mm | 0.45 m/s, 67° | - | - |
* Rain latest hour (hover to see other rain measurements)
** Current wind speed in m/s (hover to see current wind gust speed)